sensor_id;sensor_type;location;lat;lon;timestamp;P1;durP1;ratioP1;P2;durP2;ratioP2
80199;SDS011;69520;44.900;-0.764;2023-06-22T00:01:27;6.20;;;1.20;;
80199;SDS011;69520;44.900;-0.764;2023-06-22T00:03:53;4.87;;;1.17;;
80199;SDS011;69520;44.900;-0.764;2023-06-22T00:06:19;7.40;;;1.40;;
80199;SDS011;69520;44.900;-0.764;2023-06-22T00:08:45;6.40;;;1.40;;
80199;SDS011;69520;44.900;-0.764;2023-06-22T00:11:11;5.70;;;1.30;;
80199;SDS011;69520;44.900;-0.764;2023-06-22T00:13:38;6.82;;;1.17;;
80199;SDS011;69520;44.900;-0.764;2023-06-22T00:16:04;5.47;;;1.10;;
80199;SDS011;69520;44.900;-0.764;2023-06-22T00:18:30;4.82;;;1.30;;
80199;SDS011;69520;44.900;-0.764;2023-06-22T00:20:57;8.23;;;1.50;;
80199;SDS011;69520;44.900;-0.764;2023-06-22T00:23:23;4.68;;;1.02;;
80199;SDS011;69520;44.900;-0.764;2023-06-22T00:25:50;7.05;;;1.33;;
80199;SDS011;69520;44.900;-0.764;2023-06-22T00:28:16;6.03;;;1.40;;
80199;SDS011;69520;44.900;-0.764;2023-06-22T00:30:42;6.38;;;1.65;;
80199;SDS011;69520;44.900;-0.764;2023-06-22T00:33:08;5.72;;;1.50;;
80199;SDS011;69520;44.900;-0.764;2023-06-22T00:35:34;5.18;;;1.20;;
80199;SDS011;69520;44.900;-0.764;2023-06-22T00:38:00;5.50;;;1.10;;
80199;SDS011;69520;44.900;-0.764;2023-06-22T00:40:27;5.93;;;1.20;;
80199;SDS011;69520;44.900;-0.764;2023-06-22T00:42:54;5.03;;;1.10;;
80199;SDS011;69520;44.900;-0.764;2023-06-22T00:45:20;5.05;;;1.17;;
80199;SDS011;69520;44.900;-0.764;2023-06-22T00:47:48;6.15;;;1.30;;
80199;SDS011;69520;44.900;-0.764;2023-06-22T00:50:17;5.68;;;1.35;;
80199;SDS011;69520;44.900;-0.764;2023-06-22T00:52:45;7.77;;;1.77;;
80199;SDS011;69520;44.900;-0.764;2023-06-22T00:55:12;6.97;;;1.20;;
80199;SDS011;69520;44.900;-0.764;2023-06-22T00:57:38;6.45;;;1.42;;
80199;SDS011;69520;44.900;-0.764;2023-06-22T01:00:04;5.32;;;1.30;;
80199;SDS011;69520;44.900;-0.764;2023-06-22T01:02:32;5.75;;;1.42;;
80199;SDS011;69520;44.900;-0.764;2023-06-22T01:04:59;5.13;;;1.30;;
80199;SDS011;69520;44.900;-0.764;2023-06-22T01:07:31;7.50;;;1.45;;
80199;SDS011;69520;44.900;-0.764;2023-06-22T01:10:07;8.52;;;1.50;;
80199;SDS011;69520;44.900;-0.764;2023-06-22T01:12:34;4.88;;;1.33;;
80199;SDS011;69520;44.900;-0.764;2023-06-22T01:15:11;5.85;;;1.42;;
80199;SDS011;69520;44.900;-0.764;2023-06-22T01:17:38;6.57;;;1.60;;
80199;SDS011;69520;44.900;-0.764;2023-06-22T01:20:06;5.43;;;1.50;;
80199;SDS011;69520;44.900;-0.764;2023-06-22T01:22:37;6.10;;;1.70;;
80199;SDS011;69520;44.900;-0.764;2023-06-22T01:25:26;5.65;;;1.40;;
80199;SDS011;69520;44.900;-0.764;2023-06-22T01:30:25;5.63;;;1.40;;
80199;SDS011;69520;44.900;-0.764;2023-06-22T01:32:53;8.65;;;1.90;;
80199;SDS011;69520;44.900;-0.764;2023-06-22T01:35:19;5.47;;;1.45;;
80199;SDS011;69520;44.900;-0.764;2023-06-22T01:37:46;6.35;;;1.60;;
80199;SDS011;69520;44.900;-0.764;2023-06-22T01:40:12;6.15;;;1.60;;
80199;SDS011;69520;44.900;-0.764;2023-06-22T01:42:39;6.87;;;1.70;;
80199;SDS011;69520;44.900;-0.764;2023-06-22T01:45:05;7.32;;;1.80;;
80199;SDS011;69520;44.900;-0.764;2023-06-22T01:47:32;7.55;;;1.70;;
80199;SDS011;69520;44.900;-0.764;2023-06-22T01:49:59;6.97;;;1.92;;
80199;SDS011;69520;44.900;-0.764;2023-06-22T01:52:25;8.25;;;1.90;;
80199;SDS011;69520;44.900;-0.764;2023-06-22T01:54:51;6.80;;;1.80;;
80199;SDS011;69520;44.900;-0.764;2023-06-22T01:57:17;7.05;;;2.20;;
80199;SDS011;69520;44.900;-0.764;2023-06-22T02:02:09;7.15;;;2.10;;
80199;SDS011;69520;44.900;-0.764;2023-06-22T02:04:38;6.47;;;1.92;;
80199;SDS011;69520;44.900;-0.764;2023-06-22T02:07:06;8.40;;;2.20;;
80199;SDS011;69520;44.900;-0.764;2023-06-22T02:09:34;8.45;;;2.00;;
80199;SDS011;69520;44.900;-0.764;2023-06-22T02:12:01;7.65;;;2.33;;
80199;SDS011;69520;44.900;-0.764;2023-06-22T02:14:28;7.38;;;2.20;;
80199;SDS011;69520;44.900;-0.764;2023-06-22T02:16:54;6.57;;;2.05;;
80199;SDS011;69520;44.900;-0.764;2023-06-22T02:19:23;8.03;;;2.30;;
80199;SDS011;69520;44.900;-0.764;2023-06-22T02:21:50;7.57;;;2.45;;
80199;SDS011;69520;44.900;-0.764;2023-06-22T02:24:16;7.32;;;2.20;;
80199;SDS011;69520;44.900;-0.764;2023-06-22T02:26:43;9.93;;;2.20;;
80199;SDS011;69520;44.900;-0.764;2023-06-22T02:29:10;6.82;;;2.42;;
80199;SDS011;69520;44.900;-0.764;2023-06-22T02:31:36;11.43;;;2.50;;
80199;SDS011;69520;44.900;-0.764;2023-06-22T02:34:02;8.80;;;2.92;;
80199;SDS011;69520;44.900;-0.764;2023-06-22T02:36:28;8.50;;;2.30;;
80199;SDS011;69520;44.900;-0.764;2023-06-22T02:38:55;9.13;;;2.45;;
80199;SDS011;69520;44.900;-0.764;2023-06-22T02:41:25;8.02;;;2.85;;
80199;SDS011;69520;44.900;-0.764;2023-06-22T02:43:51;8.17;;;2.43;;
80199;SDS011;69520;44.900;-0.764;2023-06-22T02:46:17;7.65;;;2.08;;
80199;SDS011;69520;44.900;-0.764;2023-06-22T02:48:44;7.50;;;2.22;;
80199;SDS011;69520;44.900;-0.764;2023-06-22T02:51:10;7.15;;;2.25;;
80199;SDS011;69520;44.900;-0.764;2023-06-22T02:53:36;7.45;;;2.50;;
80199;SDS011;69520;44.900;-0.764;2023-06-22T02:56:02;7.77;;;2.60;;
80199;SDS011;69520;44.900;-0.764;2023-06-22T02:58:31;8.00;;;2.67;;
80199;SDS011;69520;44.900;-0.764;2023-06-22T03:01:04;7.78;;;2.63;;
80199;SDS011;69520;44.900;-0.764;2023-06-22T03:03:30;7.53;;;2.75;;
80199;SDS011;69520;44.900;-0.764;2023-06-22T03:05:56;9.60;;;3.03;;
80199;SDS011;69520;44.900;-0.764;2023-06-22T03:08:22;7.53;;;2.50;;
80199;SDS011;69520;44.900;-0.764;2023-06-22T03:10:48;7.85;;;2.63;;
80199;SDS011;69520;44.900;-0.764;2023-06-22T03:13:14;7.88;;;2.95;;
80199;SDS011;69520;44.900;-0.764;2023-06-22T03:15:40;9.43;;;2.88;;
80199;SDS011;69520;44.900;-0.764;2023-06-22T03:18:06;8.20;;;2.75;;
80199;SDS011;69520;44.900;-0.764;2023-06-22T03:20:32;8.60;;;3.43;;
80199;SDS011;69520;44.900;-0.764;2023-06-22T03:22:58;12.68;;;3.33;;
80199;SDS011;69520;44.900;-0.764;2023-06-22T03:25:24;10.10;;;3.30;;
80199;SDS011;69520;44.900;-0.764;2023-06-22T03:27:50;9.40;;;3.15;;
80199;SDS011;69520;44.900;-0.764;2023-06-22T03:30:16;11.15;;;4.30;;
80199;SDS011;69520;44.900;-0.764;2023-06-22T03:32:43;9.97;;;3.57;;
80199;SDS011;69520;44.900;-0.764;2023-06-22T03:35:09;10.60;;;3.53;;
80199;SDS011;69520;44.900;-0.764;2023-06-22T03:37:38;10.63;;;3.40;;
80199;SDS011;69520;44.900;-0.764;2023-06-22T03:40:04;10.07;;;3.05;;
80199;SDS011;69520;44.900;-0.764;2023-06-22T03:42:30;10.77;;;3.30;;
80199;SDS011;69520;44.900;-0.764;2023-06-22T03:44:56;7.83;;;3.20;;
80199;SDS011;69520;44.900;-0.764;2023-06-22T03:47:22;12.20;;;3.47;;
80199;SDS011;69520;44.900;-0.764;2023-06-22T03:49:48;11.63;;;3.63;;
80199;SDS011;69520;44.900;-0.764;2023-06-22T03:52:14;11.05;;;4.00;;
80199;SDS011;69520;44.900;-0.764;2023-06-22T03:54:40;11.15;;;3.10;;
80199;SDS011;69520;44.900;-0.764;2023-06-22T03:57:06;8.77;;;3.30;;
80199;SDS011;69520;44.900;-0.764;2023-06-22T03:59:33;9.63;;;3.75;;
80199;SDS011;69520;44.900;-0.764;2023-06-22T04:01:59;11.52;;;3.78;;
80199;SDS011;69520;44.900;-0.764;2023-06-22T04:04:25;10.35;;;3.85;;
80199;SDS011;69520;44.900;-0.764;2023-06-22T04:06:51;12.68;;;3.90;;
80199;SDS011;69520;44.900;-0.764;2023-06-22T04:09:17;10.27;;;3.93;;
80199;SDS011;69520;44.900;-0.764;2023-06-22T04:11:43;12.88;;;3.60;;
80199;SDS011;69520;44.900;-0.764;2023-06-22T04:14:09;10.30;;;3.50;;
80199;SDS011;69520;44.900;-0.764;2023-06-22T04:16:35;11.00;;;3.38;;
80199;SDS011;69520;44.900;-0.764;2023-06-22T04:19:01;12.23;;;3.22;;
80199;SDS011;69520;44.900;-0.764;2023-06-22T04:21:27;8.10;;;3.03;;
80199;SDS011;69520;44.900;-0.764;2023-06-22T04:23:53;12.02;;;3.60;;
80199;SDS011;69520;44.900;-0.764;2023-06-22T04:26:19;9.23;;;3.28;;
80199;SDS011;69520;44.900;-0.764;2023-06-22T04:28:48;13.77;;;3.40;;
80199;SDS011;69520;44.900;-0.764;2023-06-22T04:31:16;9.70;;;3.45;;
80199;SDS011;69520;44.900;-0.764;2023-06-22T04:33:43;9.60;;;3.20;;
80199;SDS011;69520;44.900;-0.764;2023-06-22T04:36:09;7.65;;;3.00;;
80199;SDS011;69520;44.900;-0.764;2023-06-22T04:38:38;9.00;;;3.00;;
80199;SDS011;69520;44.900;-0.764;2023-06-22T04:41:04;11.07;;;3.35;;
80199;SDS011;69520;44.900;-0.764;2023-06-22T04:43:31;9.38;;;3.67;;
80199;SDS011;69520;44.900;-0.764;2023-06-22T04:45:57;8.73;;;3.70;;
80199;SDS011;69520;44.900;-0.764;2023-06-22T04:48:28;11.82;;;4.20;;
80199;SDS011;69520;44.900;-0.764;2023-06-22T04:50:58;10.60;;;3.47;;
80199;SDS011;69520;44.900;-0.764;2023-06-22T04:53:28;9.38;;;3.47;;
80199;SDS011;69520;44.900;-0.764;2023-06-22T04:55:54;8.73;;;3.25;;
80199;SDS011;69520;44.900;-0.764;2023-06-22T04:58:20;9.30;;;3.60;;
80199;SDS011;69520;44.900;-0.764;2023-06-22T05:00:47;9.30;;;3.40;;
80199;SDS011;69520;44.900;-0.764;2023-06-22T05:03:13;10.45;;;3.80;;
80199;SDS011;69520;44.900;-0.764;2023-06-22T05:05:39;10.32;;;3.65;;
80199;SDS011;69520;44.900;-0.764;2023-06-22T05:08:05;11.40;;;3.60;;
80199;SDS011;69520;44.900;-0.764;2023-06-22T05:10:32;8.80;;;3.50;;
80199;SDS011;69520;44.900;-0.764;2023-06-22T05:12:58;9.43;;;3.55;;
80199;SDS011;69520;44.900;-0.764;2023-06-22T05:15:24;10.38;;;3.60;;
80199;SDS011;69520;44.900;-0.764;2023-06-22T05:17:53;9.15;;;3.80;;
80199;SDS011;69520;44.900;-0.764;2023-06-22T05:20:19;15.20;;;3.85;;
80199;SDS011;69520;44.900;-0.764;2023-06-22T05:22:47;11.23;;;3.93;;
80199;SDS011;69520;44.900;-0.764;2023-06-22T05:25:13;11.30;;;3.50;;
80199;SDS011;69520;44.900;-0.764;2023-06-22T05:27:39;10.88;;;4.00;;
80199;SDS011;69520;44.900;-0.764;2023-06-22T05:30:08;10.60;;;4.03;;
80199;SDS011;69520;44.900;-0.764;2023-06-22T05:32:34;10.05;;;4.05;;
80199;SDS011;69520;44.900;-0.764;2023-06-22T05:35:01;9.53;;;3.70;;
80199;SDS011;69520;44.900;-0.764;2023-06-22T05:37:28;10.05;;;3.72;;
80199;SDS011;69520;44.900;-0.764;2023-06-22T05:39:54;9.68;;;4.05;;
80199;SDS011;69520;44.900;-0.764;2023-06-22T05:42:20;10.20;;;3.97;;
80199;SDS011;69520;44.900;-0.764;2023-06-22T05:44:46;9.63;;;3.65;;
80199;SDS011;69520;44.900;-0.764;2023-06-22T05:47:13;9.43;;;3.87;;
80199;SDS011;69520;44.900;-0.764;2023-06-22T05:49:39;10.20;;;3.95;;
80199;SDS011;69520;44.900;-0.764;2023-06-22T05:52:05;10.55;;;4.00;;
80199;SDS011;69520;44.900;-0.764;2023-06-22T05:54:31;9.93;;;3.80;;
80199;SDS011;69520;44.900;-0.764;2023-06-22T05:56:57;10.65;;;3.70;;
80199;SDS011;69520;44.900;-0.764;2023-06-22T05:59:23;11.07;;;4.10;;
80199;SDS011;69520;44.900;-0.764;2023-06-22T06:01:49;9.57;;;3.65;;
80199;SDS011;69520;44.900;-0.764;2023-06-22T06:04:18;10.80;;;3.88;;
80199;SDS011;69520;44.900;-0.764;2023-06-22T06:06:45;14.27;;;4.30;;
80199;SDS011;69520;44.900;-0.764;2023-06-22T06:09:13;9.75;;;3.92;;
80199;SDS011;69520;44.900;-0.764;2023-06-22T06:11:40;9.50;;;4.03;;
80199;SDS011;69520;44.900;-0.764;2023-06-22T06:14:06;9.98;;;4.05;;
80199;SDS011;69520;44.900;-0.764;2023-06-22T06:16:32;10.95;;;3.92;;
80199;SDS011;69520;44.900;-0.764;2023-06-22T06:18:58;11.52;;;3.92;;
80199;SDS011;69520;44.900;-0.764;2023-06-22T06:21:24;11.85;;;4.13;;
80199;SDS011;69520;44.900;-0.764;2023-06-22T06:23:50;11.90;;;3.70;;
80199;SDS011;69520;44.900;-0.764;2023-06-22T06:26:16;12.02;;;4.25;;
80199;SDS011;69520;44.900;-0.764;2023-06-22T06:28:42;11.10;;;3.60;;
80199;SDS011;69520;44.900;-0.764;2023-06-22T06:31:09;9.27;;;3.70;;
80199;SDS011;69520;44.900;-0.764;2023-06-22T06:33:35;12.70;;;3.95;;
80199;SDS011;69520;44.900;-0.764;2023-06-22T06:36:01;11.03;;;4.07;;
80199;SDS011;69520;44.900;-0.764;2023-06-22T06:38:29;12.32;;;4.00;;
80199;SDS011;69520;44.900;-0.764;2023-06-22T06:40:55;9.75;;;3.83;;
80199;SDS011;69520;44.900;-0.764;2023-06-22T06:43:21;9.57;;;3.53;;
80199;SDS011;69520;44.900;-0.764;2023-06-22T06:45:47;8.55;;;3.70;;
80199;SDS011;69520;44.900;-0.764;2023-06-22T06:48:13;11.03;;;3.67;;
80199;SDS011;69520;44.900;-0.764;2023-06-22T06:50:39;10.30;;;3.72;;
80199;SDS011;69520;44.900;-0.764;2023-06-22T06:53:06;10.95;;;3.97;;
80199;SDS011;69520;44.900;-0.764;2023-06-22T06:55:32;10.88;;;4.15;;
80199;SDS011;69520;44.900;-0.764;2023-06-22T06:57:58;10.20;;;4.03;;
80199;SDS011;69520;44.900;-0.764;2023-06-22T07:00:24;9.30;;;3.80;;
80199;SDS011;69520;44.900;-0.764;2023-06-22T07:02:51;11.25;;;4.40;;
80199;SDS011;69520;44.900;-0.764;2023-06-22T07:05:17;9.15;;;3.90;;
80199;SDS011;69520;44.900;-0.764;2023-06-22T07:07:43;9.75;;;3.72;;
80199;SDS011;69520;44.900;-0.764;2023-06-22T07:10:09;9.07;;;3.70;;
80199;SDS011;69520;44.900;-0.764;2023-06-22T07:12:35;11.33;;;4.17;;
80199;SDS011;69520;44.900;-0.764;2023-06-22T07:15:04;12.15;;;3.92;;
80199;SDS011;69520;44.900;-0.764;2023-06-22T07:17:33;10.82;;;3.80;;
80199;SDS011;69520;44.900;-0.764;2023-06-22T07:19:59;11.63;;;4.07;;
80199;SDS011;69520;44.900;-0.764;2023-06-22T07:22:25;14.57;;;5.93;;
80199;SDS011;69520;44.900;-0.764;2023-06-22T07:24:51;10.50;;;4.07;;
80199;SDS011;69520;44.900;-0.764;2023-06-22T07:27:17;13.90;;;5.70;;
80199;SDS011;69520;44.900;-0.764;2023-06-22T07:29:44;13.05;;;4.72;;
80199;SDS011;69520;44.900;-0.764;2023-06-22T07:32:10;10.00;;;3.97;;
80199;SDS011;69520;44.900;-0.764;2023-06-22T07:34:36;11.13;;;4.60;;
80199;SDS011;69520;44.900;-0.764;2023-06-22T07:37:02;13.77;;;5.20;;
80199;SDS011;69520;44.900;-0.764;2023-06-22T07:39:29;12.05;;;4.82;;
80199;SDS011;69520;44.900;-0.764;2023-06-22T07:41:55;12.95;;;5.32;;
80199;SDS011;69520;44.900;-0.764;2023-06-22T07:44:21;15.73;;;5.32;;
80199;SDS011;69520;44.900;-0.764;2023-06-22T07:46:47;13.52;;;5.18;;
80199;SDS011;69520;44.900;-0.764;2023-06-22T07:49:13;13.00;;;5.00;;
80199;SDS011;69520;44.900;-0.764;2023-06-22T07:51:39;13.07;;;5.07;;
80199;SDS011;69520;44.900;-0.764;2023-06-22T07:54:05;9.98;;;3.90;;
80199;SDS011;69520;44.900;-0.764;2023-06-22T07:56:32;10.82;;;4.28;;
80199;SDS011;69520;44.900;-0.764;2023-06-22T07:58:58;11.82;;;5.20;;
80199;SDS011;69520;44.900;-0.764;2023-06-22T08:01:25;13.00;;;4.50;;
80199;SDS011;69520;44.900;-0.764;2023-06-22T08:03:51;8.48;;;3.50;;
80199;SDS011;69520;44.900;-0.764;2023-06-22T08:06:17;9.57;;;3.55;;
80199;SDS011;69520;44.900;-0.764;2023-06-22T08:08:43;11.40;;;3.45;;
80199;SDS011;69520;44.900;-0.764;2023-06-22T08:11:12;10.07;;;4.10;;
80199;SDS011;69520;44.900;-0.764;2023-06-22T08:13:39;9.57;;;3.90;;
80199;SDS011;69520;44.900;-0.764;2023-06-22T08:16:04;8.82;;;3.72;;
80199;SDS011;69520;44.900;-0.764;2023-06-22T08:18:32;9.10;;;3.80;;
80199;SDS011;69520;44.900;-0.764;2023-06-22T08:20:58;13.88;;;3.92;;
80199;SDS011;69520;44.900;-0.764;2023-06-22T08:23:24;8.50;;;3.38;;
80199;SDS011;69520;44.900;-0.764;2023-06-22T08:25:50;9.00;;;3.63;;
80199;SDS011;69520;44.900;-0.764;2023-06-22T08:28:16;9.52;;;3.70;;
80199;SDS011;69520;44.900;-0.764;2023-06-22T08:30:42;11.30;;;3.45;;
80199;SDS011;69520;44.900;-0.764;2023-06-22T08:33:08;9.38;;;3.78;;
80199;SDS011;69520;44.900;-0.764;2023-06-22T08:35:34;9.05;;;2.92;;
80199;SDS011;69520;44.900;-0.764;2023-06-22T08:38:00;7.97;;;3.43;;
80199;SDS011;69520;44.900;-0.764;2023-06-22T08:40:27;8.50;;;3.38;;
80199;SDS011;69520;44.900;-0.764;2023-06-22T08:42:54;9.38;;;3.22;;
80199;SDS011;69520;44.900;-0.764;2023-06-22T08:45:20;10.23;;;3.75;;
80199;SDS011;69520;44.900;-0.764;2023-06-22T08:47:46;11.13;;;4.68;;
80199;SDS011;69520;44.900;-0.764;2023-06-22T08:50:12;10.17;;;3.43;;
80199;SDS011;69520;44.900;-0.764;2023-06-22T08:52:39;8.38;;;3.38;;
80199;SDS011;69520;44.900;-0.764;2023-06-22T08:55:09;8.68;;;3.88;;
80199;SDS011;69520;44.900;-0.764;2023-06-22T08:57:35;9.52;;;3.28;;
80199;SDS011;69520;44.900;-0.764;2023-06-22T09:00:07;9.85;;;3.72;;
80199;SDS011;69520;44.900;-0.764;2023-06-22T09:02:45;9.50;;;3.57;;
80199;SDS011;69520;44.900;-0.764;2023-06-22T09:05:11;11.07;;;3.63;;
80199;SDS011;69520;44.900;-0.764;2023-06-22T09:07:37;9.77;;;3.60;;
80199;SDS011;69520;44.900;-0.764;2023-06-22T09:10:04;10.90;;;3.75;;
80199;SDS011;69520;44.900;-0.764;2023-06-22T09:12:30;10.45;;;3.50;;
80199;SDS011;69520;44.900;-0.764;2023-06-22T09:14:57;8.77;;;3.43;;
80199;SDS011;69520;44.900;-0.764;2023-06-22T09:17:25;9.25;;;3.40;;
80199;SDS011;69520;44.900;-0.764;2023-06-22T09:19:51;11.70;;;3.90;;
80199;SDS011;69520;44.900;-0.764;2023-06-22T09:22:17;9.95;;;3.80;;
80199;SDS011;69520;44.900;-0.764;2023-06-22T09:24:43;10.00;;;4.15;;
80199;SDS011;69520;44.900;-0.764;2023-06-22T09:27:09;8.40;;;3.47;;
80199;SDS011;69520;44.900;-0.764;2023-06-22T09:29:35;13.30;;;4.10;;
80199;SDS011;69520;44.900;-0.764;2023-06-22T09:32:01;9.65;;;3.47;;
80199;SDS011;69520;44.900;-0.764;2023-06-22T09:34:27;9.18;;;3.40;;
80199;SDS011;69520;44.900;-0.764;2023-06-22T09:36:53;11.52;;;3.75;;
80199;SDS011;69520;44.900;-0.764;2023-06-22T09:39:20;8.77;;;3.63;;
80199;SDS011;69520;44.900;-0.764;2023-06-22T09:41:46;8.65;;;3.53;;
80199;SDS011;69520;44.900;-0.764;2023-06-22T09:44:12;9.57;;;3.65;;
80199;SDS011;69520;44.900;-0.764;2023-06-22T09:46:38;8.70;;;3.30;;
80199;SDS011;69520;44.900;-0.764;2023-06-22T09:49:04;11.13;;;3.15;;
80199;SDS011;69520;44.900;-0.764;2023-06-22T09:51:30;8.63;;;2.87;;
80199;SDS011;69520;44.900;-0.764;2023-06-22T09:53:56;7.50;;;2.80;;
80199;SDS011;69520;44.900;-0.764;2023-06-22T09:56:23;7.22;;;2.70;;
80199;SDS011;69520;44.900;-0.764;2023-06-22T09:58:49;8.45;;;3.00;;
80199;SDS011;69520;44.900;-0.764;2023-06-22T10:01:17;8.40;;;2.60;;
80199;SDS011;69520;44.900;-0.764;2023-06-22T10:03:43;7.67;;;2.70;;
80199;SDS011;69520;44.900;-0.764;2023-06-22T10:06:09;8.13;;;2.55;;
80199;SDS011;69520;44.900;-0.764;2023-06-22T10:08:35;8.27;;;2.58;;
80199;SDS011;69520;44.900;-0.764;2023-06-22T10:13:28;9.02;;;3.67;;
80199;SDS011;69520;44.900;-0.764;2023-06-22T10:15:54;6.87;;;2.80;;
80199;SDS011;69520;44.900;-0.764;2023-06-22T10:18:21;6.47;;;2.50;;
80199;SDS011;69520;44.900;-0.764;2023-06-22T10:20:47;7.22;;;2.60;;
80199;SDS011;69520;44.900;-0.764;2023-06-22T10:23:13;7.65;;;2.97;;
80199;SDS011;69520;44.900;-0.764;2023-06-22T10:25:39;7.88;;;3.17;;
80199;SDS011;69520;44.900;-0.764;2023-06-22T10:28:05;9.27;;;2.90;;
80199;SDS011;69520;44.900;-0.764;2023-06-22T10:30:32;7.90;;;3.00;;
80199;SDS011;69520;44.900;-0.764;2023-06-22T10:32:58;7.30;;;2.92;;
80199;SDS011;69520;44.900;-0.764;2023-06-22T10:35:24;8.38;;;3.28;;
80199;SDS011;69520;44.900;-0.764;2023-06-22T10:37:50;9.52;;;3.58;;
80199;SDS011;69520;44.900;-0.764;2023-06-22T10:40:16;7.40;;;3.20;;
80199;SDS011;69520;44.900;-0.764;2023-06-22T10:42:43;8.57;;;3.50;;
80199;SDS011;69520;44.900;-0.764;2023-06-22T10:45:10;7.93;;;3.25;;
80199;SDS011;69520;44.900;-0.764;2023-06-22T10:47:36;8.38;;;3.30;;
80199;SDS011;69520;44.900;-0.764;2023-06-22T10:50:03;10.20;;;3.10;;
80199;SDS011;69520;44.900;-0.764;2023-06-22T10:52:29;8.27;;;3.37;;
80199;SDS011;69520;44.900;-0.764;2023-06-22T10:54:55;8.73;;;3.20;;
80199;SDS011;69520;44.900;-0.764;2023-06-22T10:57:21;7.82;;;3.15;;
80199;SDS011;69520;44.900;-0.764;2023-06-22T10:59:48;9.85;;;3.67;;
80199;SDS011;69520;44.900;-0.764;2023-06-22T11:02:14;8.60;;;3.42;;
80199;SDS011;69520;44.900;-0.764;2023-06-22T11:04:40;8.30;;;3.40;;
80199;SDS011;69520;44.900;-0.764;2023-06-22T11:07:06;7.85;;;3.47;;
80199;SDS011;69520;44.900;-0.764;2023-06-22T11:09:32;11.75;;;3.75;;
80199;SDS011;69520;44.900;-0.764;2023-06-22T11:11:58;10.07;;;3.83;;
80199;SDS011;69520;44.900;-0.764;2023-06-22T11:14:25;8.77;;;4.18;;
80199;SDS011;69520;44.900;-0.764;2023-06-22T11:16:51;8.50;;;3.57;;
80199;SDS011;69520;44.900;-0.764;2023-06-22T11:19:17;8.10;;;3.50;;
80199;SDS011;69520;44.900;-0.764;2023-06-22T11:21:44;9.02;;;3.60;;
80199;SDS011;69520;44.900;-0.764;2023-06-22T11:24:10;8.65;;;3.65;;
80199;SDS011;69520;44.900;-0.764;2023-06-22T11:26:36;9.20;;;4.05;;
80199;SDS011;69520;44.900;-0.764;2023-06-22T11:29:02;8.83;;;3.50;;
80199;SDS011;69520;44.900;-0.764;2023-06-22T11:31:32;8.68;;;4.03;;
80199;SDS011;69520;44.900;-0.764;2023-06-22T11:33:58;9.35;;;3.45;;
80199;SDS011;69520;44.900;-0.764;2023-06-22T11:36:24;11.77;;;3.58;;
80199;SDS011;69520;44.900;-0.764;2023-06-22T11:38:50;8.63;;;3.58;;
80199;SDS011;69520;44.900;-0.764;2023-06-22T11:41:16;8.60;;;3.70;;
80199;SDS011;69520;44.900;-0.764;2023-06-22T11:43:42;10.20;;;4.05;;
80199;SDS011;69520;44.900;-0.764;2023-06-22T11:46:08;8.52;;;3.55;;
80199;SDS011;69520;44.900;-0.764;2023-06-22T11:48:35;8.00;;;3.78;;
80199;SDS011;69520;44.900;-0.764;2023-06-22T11:51:01;8.93;;;4.03;;
80199;SDS011;69520;44.900;-0.764;2023-06-22T11:53:28;8.17;;;4.00;;
80199;SDS011;69520;44.900;-0.764;2023-06-22T11:55:54;7.97;;;3.85;;
80199;SDS011;69520;44.900;-0.764;2023-06-22T11:58:20;8.25;;;3.53;;
80199;SDS011;69520;44.900;-0.764;2023-06-22T12:00:46;10.80;;;3.55;;
80199;SDS011;69520;44.900;-0.764;2023-06-22T12:03:12;8.13;;;3.58;;
80199;SDS011;69520;44.900;-0.764;2023-06-22T12:05:39;8.47;;;3.50;;
80199;SDS011;69520;44.900;-0.764;2023-06-22T12:08:05;8.95;;;4.05;;
80199;SDS011;69520;44.900;-0.764;2023-06-22T12:10:31;7.57;;;3.78;;
80199;SDS011;69520;44.900;-0.764;2023-06-22T12:12:57;9.45;;;3.78;;
80199;SDS011;69520;44.900;-0.764;2023-06-22T12:15:25;8.90;;;3.90;;
80199;SDS011;69520;44.900;-0.764;2023-06-22T12:17:51;7.60;;;3.73;;
80199;SDS011;69520;44.900;-0.764;2023-06-22T12:20:17;8.30;;;3.75;;
80199;SDS011;69520;44.900;-0.764;2023-06-22T12:22:43;7.97;;;3.67;;
80199;SDS011;69520;44.900;-0.764;2023-06-22T12:25:09;8.63;;;3.65;;
80199;SDS011;69520;44.900;-0.764;2023-06-22T12:27:36;9.75;;;3.50;;
80199;SDS011;69520;44.900;-0.764;2023-06-22T12:30:02;8.73;;;3.80;;
80199;SDS011;69520;44.900;-0.764;2023-06-22T12:32:28;8.43;;;3.90;;
80199;SDS011;69520;44.900;-0.764;2023-06-22T12:34:55;7.63;;;3.75;;
80199;SDS011;69520;44.900;-0.764;2023-06-22T12:37:21;7.95;;;3.58;;
80199;SDS011;69520;44.900;-0.764;2023-06-22T12:39:47;8.48;;;3.50;;
80199;SDS011;69520;44.900;-0.764;2023-06-22T12:42:14;8.93;;;4.10;;
80199;SDS011;69520;44.900;-0.764;2023-06-22T12:44:40;7.80;;;3.55;;
80199;SDS011;69520;44.900;-0.764;2023-06-22T12:47:07;10.35;;;3.85;;
80199;SDS011;69520;44.900;-0.764;2023-06-22T12:49:36;7.90;;;3.42;;
80199;SDS011;69520;44.900;-0.764;2023-06-22T12:52:02;7.47;;;3.40;;
80199;SDS011;69520;44.900;-0.764;2023-06-22T12:54:28;9.40;;;3.63;;
80199;SDS011;69520;44.900;-0.764;2023-06-22T12:56:55;7.78;;;3.40;;
80199;SDS011;69520;44.900;-0.764;2023-06-22T12:59:21;8.93;;;3.95;;
80199;SDS011;69520;44.900;-0.764;2023-06-22T13:01:47;8.10;;;3.78;;
80199;SDS011;69520;44.900;-0.764;2023-06-22T13:04:13;8.30;;;3.67;;
80199;SDS011;69520;44.900;-0.764;2023-06-22T13:06:43;8.77;;;3.87;;
80199;SDS011;69520;44.900;-0.764;2023-06-22T13:09:12;8.98;;;4.20;;
80199;SDS011;69520;44.900;-0.764;2023-06-22T13:11:38;9.60;;;4.07;;
80199;SDS011;69520;44.900;-0.764;2023-06-22T13:14:04;11.90;;;4.22;;
80199;SDS011;69520;44.900;-0.764;2023-06-22T13:16:30;8.10;;;4.30;;
80199;SDS011;69520;44.900;-0.764;2023-06-22T13:18:56;8.93;;;4.10;;
80199;SDS011;69520;44.900;-0.764;2023-06-22T13:21:22;8.20;;;3.92;;
80199;SDS011;69520;44.900;-0.764;2023-06-22T13:23:48;8.98;;;4.50;;
80199;SDS011;69520;44.900;-0.764;2023-06-22T13:26:14;10.48;;;4.57;;
80199;SDS011;69520;44.900;-0.764;2023-06-22T13:28:40;7.85;;;4.40;;
80199;SDS011;69520;44.900;-0.764;2023-06-22T13:31:06;9.53;;;5.00;;
80199;SDS011;69520;44.900;-0.764;2023-06-22T13:33:32;10.10;;;4.63;;
80199;SDS011;69520;44.900;-0.764;2023-06-22T13:35:58;10.85;;;5.07;;
80199;SDS011;69520;44.900;-0.764;2023-06-22T13:38:24;11.98;;;4.78;;
80199;SDS011;69520;44.900;-0.764;2023-06-22T13:40:50;8.90;;;4.68;;
80199;SDS011;69520;44.900;-0.764;2023-06-22T13:43:16;11.47;;;4.70;;
80199;SDS011;69520;44.900;-0.764;2023-06-22T13:45:43;10.20;;;5.05;;
80199;SDS011;69520;44.900;-0.764;2023-06-22T13:48:09;9.30;;;4.70;;
80199;SDS011;69520;44.900;-0.764;2023-06-22T13:50:35;10.60;;;4.88;;
80199;SDS011;69520;44.900;-0.764;2023-06-22T13:53:01;10.30;;;4.45;;
80199;SDS011;69520;44.900;-0.764;2023-06-22T13:55:27;9.50;;;4.80;;
80199;SDS011;69520;44.900;-0.764;2023-06-22T13:57:53;10.30;;;4.90;;
80199;SDS011;69520;44.900;-0.764;2023-06-22T14:00:19;10.02;;;4.97;;
80199;SDS011;69520;44.900;-0.764;2023-06-22T14:02:45;9.27;;;4.90;;
80199;SDS011;69520;44.900;-0.764;2023-06-22T14:05:11;8.95;;;4.60;;
80199;SDS011;69520;44.900;-0.764;2023-06-22T14:07:37;11.00;;;4.70;;
80199;SDS011;69520;44.900;-0.764;2023-06-22T14:10:04;10.05;;;4.15;;
80199;SDS011;69520;44.900;-0.764;2023-06-22T14:12:30;10.90;;;4.43;;
80199;SDS011;69520;44.900;-0.764;2023-06-22T14:14:56;8.82;;;4.03;;
80199;SDS011;69520;44.900;-0.764;2023-06-22T14:17:22;7.20;;;3.90;;
80199;SDS011;69520;44.900;-0.764;2023-06-22T14:19:50;10.77;;;4.33;;
80199;SDS011;69520;44.900;-0.764;2023-06-22T14:22:20;10.57;;;4.32;;
80199;SDS011;69520;44.900;-0.764;2023-06-22T14:24:47;9.38;;;4.32;;
80199;SDS011;69520;44.900;-0.764;2023-06-22T14:27:13;9.45;;;4.22;;
80199;SDS011;69520;44.900;-0.764;2023-06-22T14:29:39;8.18;;;3.90;;
80199;SDS011;69520;44.900;-0.764;2023-06-22T14:32:06;8.20;;;3.87;;
80199;SDS011;69520;44.900;-0.764;2023-06-22T14:34:32;9.95;;;4.07;;